Accueil
METAR-TAF:

METAR-TAF

Aéroports :

Wattisham, Angleterre

latitude: 52-07N, longitude: 000-58E, altitude: 87 m

Observation

Le bulletin a été fait il y a 44 minutes, à 05:50 UTC
Vent 12 kt de sud/sud-ouest
Température 13°C
Humidité 94%
Pression 1002 hPa
Visibilité 10 km ou plus
pluie faible

METAR: EGUW 210550Z AUTO 21012KT 9999 -RA BKN060/// SCT100/// 13/12 Q1002

Heure: 07:34 (06:34 UTC)

Prévision

Le bulletin a été fait il y a 17 heures et 4 minutes, à 13:30 UTC
Prévision valable du 20 à 15 UTC au 20 à 18 UTC
Vent 14 kt de ouest/sud-ouest
Visibilité 10 km ou plus
Nuages fragmentés à une hauteur de 2000 ft
Evoluant progressivement
du 20 à 15 UTC au 20 à 16 UTC
Nuages épars à une hauteur de 2500 ft

TAF: EGUW 201330Z 2015/2018 25014KT 9999 BKN020 BECMG 2015/2016 SCT025

Observations et prévisions météorologiques de plus de 4000 aéroports (messages METAR et TAF).

Les stations disponibles sont représentées par des disques jaunes et rouges sur la carte.

Passer la souris dessus pour voir le nom de la station.

Cliquer dessus pour voir les observations et prévisions météorologiques.

Pour changer de carte: cliquez sur les boutons verts avec une croix noire pour zoomer, sur le bouton vert avec un tiret pour effectuer un zoom arrière, ou sur les flèches vertes pour les cartes adjacentes.


METAR-TAF: